createdAt,value
2022-10-08T00:02:05.891Z,81.07
2022-10-08T00:04:33.152Z,83.38
2022-10-08T00:07:00.071Z,83.07
2022-10-08T00:09:27.178Z,81.71
2022-10-08T00:11:54.085Z,81.79
2022-10-08T00:14:23.638Z,80.60
2022-10-08T00:16:50.778Z,81.07
2022-10-08T00:19:17.685Z,81.14
2022-10-08T00:21:45.366Z,81.32
2022-10-08T00:24:17.190Z,81.94
2022-10-08T00:26:44.755Z,81.17
2022-10-08T00:29:13.866Z,80.38
2022-10-08T00:31:41.991Z,81.13
2022-10-08T00:34:10.009Z,80.69
2022-10-08T00:36:37.574Z,81.33
2022-10-08T00:39:06.318Z,80.73
2022-10-08T00:41:34.794Z,81.83
2022-10-08T00:44:04.000Z,81.84
2022-10-08T00:46:35.113Z,82.32
2022-10-08T00:49:07.042Z,82.24
2022-10-08T00:51:34.261Z,82.67
2022-10-08T00:54:02.140Z,81.65
2022-10-08T00:56:31.446Z,81.89
2022-10-08T00:58:58.635Z,82.28
2022-10-08T01:01:25.603Z,81.87
2022-10-08T01:03:52.505Z,82.16
2022-10-08T01:06:22.423Z,82.68
2022-10-08T01:08:55.961Z,82.95
2022-10-08T01:11:31.962Z,83.13
2022-10-08T01:14:11.177Z,82.21
2022-10-08T01:16:45.171Z,82.69
2022-10-08T01:19:11.952Z,82.82
2022-10-08T01:21:43.499Z,82.77
2022-10-08T01:24:19.934Z,82.81
2022-10-08T01:26:54.131Z,83.54
2022-10-08T01:29:23.239Z,86.01
2022-10-08T01:31:53.189Z,86.03
2022-10-08T01:34:24.009Z,87.56
2022-10-08T01:36:52.100Z,88.22
2022-10-08T01:39:21.286Z,87.96
2022-10-08T01:41:51.514Z,88.83
2022-10-08T01:44:24.665Z,89.72
2022-10-08T01:46:53.048Z,89.85
2022-10-08T01:49:23.001Z,89.12
2022-10-08T01:51:55.302Z,89.08
2022-10-08T01:54:24.834Z,89.12
2022-10-08T01:56:52.937Z,89.78
2022-10-08T01:59:31.310Z,89.88
2022-10-08T02:01:58.432Z,90.07
2022-10-08T02:04:33.527Z,89.79
2022-10-08T02:07:03.942Z,89.26
2022-10-08T02:09:32.505Z,88.08
2022-10-08T02:11:59.407Z,88.01
2022-10-08T02:14:27.689Z,88.51
2022-10-08T02:17:14.812Z,87.98
2022-10-08T02:19:44.973Z,88.19
2022-10-08T02:22:14.636Z,88.06
2022-10-08T02:24:46.010Z,87.53
2022-10-08T02:27:13.522Z,84.78
2022-10-08T02:29:47.509Z,83.00
2022-10-08T02:32:22.318Z,81.37
2022-10-08T02:35:15.564Z,81.06
2022-10-08T02:37:48.953Z,81.81
2022-10-08T02:40:17.731Z,82.28
2022-10-08T02:42:49.582Z,82.59
2022-10-08T02:45:16.802Z,82.24
2022-10-08T02:47:45.486Z,81.69
2022-10-08T02:50:15.120Z,81.62
2022-10-08T02:52:43.985Z,82.17
2022-10-08T02:55:26.712Z,84.65
2022-10-08T02:58:01.980Z,86.97
2022-10-08T03:00:34.726Z,86.42
2022-10-08T03:03:28.242Z,86.25
2022-10-08T03:05:57.034Z,88.68
2022-10-08T03:08:24.282Z,89.87
2022-10-08T03:10:51.522Z,90.80
2022-10-08T03:13:19.345Z,92.84
2022-10-08T03:15:48.837Z,93.76
2022-10-08T03:18:15.972Z,93.46
2022-10-08T03:20:45.734Z,93.52
2022-10-08T03:23:16.008Z,93.34
2022-10-08T03:25:42.972Z,93.31
2022-10-08T03:28:09.940Z,92.39
2022-10-08T03:30:37.276Z,91.76
2022-10-08T03:33:04.453Z,91.29
2022-10-08T03:35:32.213Z,90.96
2022-10-08T03:37:59.505Z,90.97
2022-10-08T03:40:26.423Z,90.51
2022-10-08T03:42:53.252Z,90.48
2022-10-08T03:45:20.258Z,90.85
2022-10-08T03:47:50.747Z,91.12
2022-10-08T03:50:17.757Z,92.72
2022-10-08T03:52:45.115Z,94.06
2022-10-08T03:55:12.070Z,95.13
2022-10-08T03:57:39.001Z,95.64
2022-10-08T04:00:06.629Z,96.04
2022-10-08T04:02:33.617Z,97.38
2022-10-08T04:05:00.577Z,98.17
2022-10-08T04:07:27.934Z,97.78
2022-10-08T04:09:54.723Z,98.18
2022-10-08T04:12:21.627Z,98.24
2022-10-08T04:14:48.798Z,98.36
2022-10-08T04:17:15.679Z,98.86
2022-10-08T04:19:42.585Z,98.12
2022-10-08T04:22:09.596Z,98.14
2022-10-08T04:24:36.462Z,98.44
2022-10-08T04:27:03.385Z,98.49
2022-10-08T04:29:30.636Z,96.61
2022-10-08T04:31:59.925Z,95.89
2022-10-08T04:34:26.821Z,96.13
2022-10-08T04:36:53.881Z,95.61
2022-10-08T04:39:20.692Z,94.93
2022-10-08T04:41:47.584Z,94.91
2022-10-08T04:44:14.609Z,95.85
2022-10-08T04:46:41.469Z,96.15
2022-10-08T04:49:09.344Z,96.89
2022-10-08T04:51:36.580Z,95.71
2022-10-08T04:54:03.529Z,96.29
2022-10-08T04:56:31.957Z,96.08
2022-10-08T04:58:59.757Z,95.46
2022-10-08T05:01:27.670Z,94.14
2022-10-08T05:03:55.682Z,93.30
2022-10-08T05:06:24.539Z,92.39
2022-10-08T05:08:51.599Z,93.70
2022-10-08T05:11:19.206Z,93.88
2022-10-08T05:13:50.662Z,95.43
2022-10-08T05:16:18.458Z,96.44
2022-10-08T05:18:45.877Z,97.59
2022-10-08T05:21:14.794Z,98.09
2022-10-08T05:23:45.021Z,98.40
2022-10-08T05:26:16.918Z,98.55
2022-10-08T05:28:44.469Z,98.52
2022-10-08T05:31:11.466Z,97.56
2022-10-08T05:33:38.828Z,98.03
2022-10-08T05:36:07.066Z,98.46
2022-10-08T05:38:35.257Z,97.65
2022-10-08T05:41:12.842Z,97.30
2022-10-08T05:43:40.104Z,97.30
2022-10-08T05:46:07.094Z,95.91
2022-10-08T05:48:34.112Z,95.75
2022-10-08T05:51:08.600Z,96.90
2022-10-08T05:53:37.256Z,98.70
2022-10-08T05:56:05.382Z,99.08
2022-10-08T05:58:34.097Z,98.35
2022-10-08T06:01:02.048Z,98.75
2022-10-08T06:03:29.353Z,98.32
2022-10-08T06:06:01.532Z,98.39
2022-10-08T06:08:28.461Z,98.96
2022-10-08T06:10:55.860Z,99.08
2022-10-08T06:13:23.200Z,98.95
2022-10-08T06:15:56.332Z,98.48
2022-10-08T06:18:24.164Z,97.50
2022-10-08T06:20:51.077Z,97.52
2022-10-08T06:23:18.240Z,97.67
2022-10-08T06:25:45.467Z,97.36
2022-10-08T06:28:12.723Z,95.78
2022-10-08T06:30:41.482Z,95.10
2022-10-08T06:33:09.449Z,94.42
2022-10-08T06:35:37.361Z,95.00
2022-10-08T06:38:04.551Z,93.29
2022-10-08T06:40:32.582Z,93.33
2022-10-08T06:42:59.620Z,91.75
2022-10-08T06:45:26.553Z,91.44
2022-10-08T06:47:53.876Z,91.68
2022-10-08T06:50:20.787Z,91.06
2022-10-08T06:52:49.443Z,91.07
2022-10-08T06:55:16.846Z,90.99
2022-10-08T06:57:43.736Z,89.33
2022-10-08T07:00:10.915Z,87.28
2022-10-08T07:02:38.128Z,85.35
2022-10-08T07:05:05.350Z,83.28
2022-10-08T07:07:32.213Z,82.65
2022-10-08T07:09:59.418Z,81.59
2022-10-08T07:12:26.378Z,83.05
2022-10-08T07:14:53.244Z,84.60
2022-10-08T07:17:20.815Z,86.12
2022-10-08T07:19:47.695Z,86.51
2022-10-08T07:22:14.814Z,87.07
2022-10-08T07:24:41.696Z,86.98
2022-10-08T07:27:08.558Z,86.59
2022-10-08T07:29:36.710Z,85.88
2022-10-08T07:32:03.956Z,85.63
2022-10-08T07:34:30.816Z,85.60
2022-10-08T07:36:57.928Z,84.27
2022-10-08T07:39:24.848Z,84.82
2022-10-08T07:41:51.707Z,84.23
2022-10-08T07:44:18.938Z,84.92
2022-10-08T07:46:47.089Z,84.66
2022-10-08T07:49:14.694Z,83.85
2022-10-08T07:51:41.906Z,84.45
2022-10-08T07:54:11.998Z,82.45
2022-10-08T07:56:38.768Z,80.77
2022-10-08T07:59:06.108Z,79.87
2022-10-08T08:01:33.510Z,79.03
2022-10-08T08:04:05.127Z,78.40
2022-10-08T08:06:33.540Z,77.15
2022-10-08T08:09:01.379Z,74.53
2022-10-08T08:11:28.676Z,72.83
2022-10-08T08:13:55.838Z,70.15
2022-10-08T08:16:25.550Z,69.51
2022-10-08T08:18:54.006Z,69.34
2022-10-08T08:21:22.902Z,67.19
2022-10-08T08:23:50.619Z,66.02
2022-10-08T08:26:18.933Z,63.75
2022-10-08T08:28:49.922Z,62.82
2022-10-08T08:31:18.749Z,59.70
2022-10-08T08:33:51.222Z,58.48
2022-10-08T08:36:19.144Z,55.44
2022-10-08T08:38:46.696Z,55.46
2022-10-08T08:41:29.036Z,58.10
2022-10-08T08:44:03.495Z,62.31
2022-10-08T08:46:33.922Z,61.88
2022-10-08T08:49:05.684Z,63.29
2022-10-08T08:51:32.553Z,62.23
2022-10-08T08:54:00.119Z,60.20
2022-10-08T08:56:28.110Z,56.45
2022-10-08T08:59:00.391Z,55.43
2022-10-08T09:01:27.525Z,55.38
2022-10-08T09:04:01.825Z,56.80
2022-10-08T09:06:29.829Z,57.55
2022-10-08T09:08:58.845Z,58.05
2022-10-08T09:11:26.178Z,55.85
2022-10-08T09:13:57.696Z,54.99
2022-10-08T09:16:26.898Z,56.76
2022-10-08T09:18:54.189Z,57.38
2022-10-08T09:21:21.938Z,57.51
2022-10-08T09:23:48.841Z,58.54
2022-10-08T09:26:16.627Z,57.46
2022-10-08T09:28:44.676Z,55.95
2022-10-08T09:31:17.869Z,56.24
2022-10-08T09:33:46.067Z,56.62
2022-10-08T09:36:13.037Z,56.98
2022-10-08T09:38:39.986Z,58.96
2022-10-08T09:41:09.804Z,60.73
2022-10-08T09:43:36.635Z,62.64
2022-10-08T09:46:11.892Z,61.96
2022-10-08T09:48:39.761Z,59.13
2022-10-08T09:51:13.096Z,58.78
2022-10-08T09:53:43.033Z,55.90
2022-10-08T09:56:10.562Z,55.92
2022-10-08T09:58:54.247Z,53.58
2022-10-08T10:01:22.188Z,50.60
2022-10-08T10:03:51.259Z,49.28
2022-10-08T10:06:25.562Z,46.13
2022-10-08T10:09:01.918Z,45.01
2022-10-08T10:11:33.331Z,49.35
2022-10-08T10:14:05.703Z,50.25
2022-10-08T10:16:38.449Z,54.88
2022-10-08T10:19:09.743Z,54.34
2022-10-08T10:21:40.434Z,56.28
2022-10-08T10:24:07.755Z,53.83
2022-10-08T10:26:37.350Z,52.86
2022-10-08T10:29:04.220Z,52.48
2022-10-08T10:31:33.813Z,52.20
2022-10-08T10:34:30.277Z,52.57
2022-10-08T10:36:59.488Z,52.19
2022-10-08T10:39:29.488Z,53.02
2022-10-08T10:41:56.368Z,52.70
2022-10-08T10:44:26.933Z,53.31
2022-10-08T10:46:56.582Z,55.13
2022-10-08T10:49:30.080Z,55.33
2022-10-08T10:51:57.210Z,56.61
2022-10-08T10:54:59.563Z,56.74
2022-10-08T10:57:35.549Z,58.39
2022-10-08T11:00:20.504Z,59.80
2022-10-08T11:02:50.950Z,58.83
2022-10-08T11:05:26.573Z,58.11
2022-10-08T11:07:59.898Z,57.87
2022-10-08T11:10:45.272Z,56.69
2022-10-08T11:13:22.153Z,56.28
2022-10-08T11:16:04.183Z,54.85
2022-10-08T11:18:43.782Z,53.79
2022-10-08T11:21:16.824Z,53.08
2022-10-08T11:23:51.913Z,52.30
2022-10-08T11:26:31.372Z,52.76
2022-10-08T11:28:58.409Z,51.12
2022-10-08T11:31:45.633Z,49.38
2022-10-08T11:34:15.866Z,49.40
2022-10-08T11:37:06.136Z,51.17
2022-10-08T11:40:03.124Z,53.77
2022-10-08T11:42:48.523Z,55.12
2022-10-08T11:45:26.025Z,56.99
2022-10-08T11:47:54.586Z,56.93
2022-10-08T11:50:26.805Z,57.75
2022-10-08T11:52:55.234Z,58.57
2022-10-08T11:55:46.414Z,58.95
2022-10-08T11:58:23.727Z,58.57
2022-10-08T12:00:53.497Z,58.31
2022-10-08T12:03:27.414Z,57.61
2022-10-08T12:05:56.249Z,56.32
2022-10-08T12:08:41.854Z,55.70
2022-10-08T12:11:27.835Z,55.72
2022-10-08T12:14:27.256Z,55.60
2022-10-08T12:16:57.540Z,55.92
2022-10-08T12:19:36.163Z,56.52
2022-10-08T12:22:06.920Z,57.47
2022-10-08T12:24:39.748Z,57.66
2022-10-08T12:27:22.103Z,58.11
2022-10-08T12:30:00.980Z,58.18
2022-10-08T12:32:31.077Z,59.42
2022-10-08T12:34:58.298Z,60.40
2022-10-08T12:37:35.156Z,60.39
2022-10-08T12:40:07.534Z,60.41
2022-10-08T12:42:37.153Z,60.50
2022-10-08T12:45:27.233Z,61.22
2022-10-08T12:47:54.189Z,61.85
2022-10-08T12:50:33.002Z,63.28
2022-10-08T12:53:00.997Z,63.31
2022-10-08T12:55:29.415Z,63.72
2022-10-08T12:57:57.203Z,63.85
2022-10-08T13:00:33.222Z,63.41
2022-10-08T13:03:03.566Z,64.43
2022-10-08T13:05:30.717Z,63.81
2022-10-08T13:07:58.062Z,63.76
2022-10-08T13:10:27.182Z,63.25
2022-10-08T13:13:05.198Z,63.18
2022-10-08T13:15:33.605Z,64.28
2022-10-08T13:18:01.406Z,65.01
2022-10-08T13:20:28.429Z,65.66
2022-10-08T13:22:55.633Z,67.00
2022-10-08T13:25:39.096Z,66.93
2022-10-08T13:28:09.400Z,66.24
2022-10-08T13:30:36.410Z,65.42
2022-10-08T13:33:36.032Z,64.73
2022-10-08T13:36:03.197Z,65.61
2022-10-08T13:38:37.044Z,67.92
2022-10-08T13:41:07.807Z,67.54
2022-10-08T13:43:38.889Z,69.02
2022-10-08T13:46:09.133Z,68.92
2022-10-08T13:48:42.492Z,69.27
2022-10-08T13:51:10.499Z,70.53
2022-10-08T13:53:37.742Z,68.71
2022-10-08T13:56:05.798Z,68.54
2022-10-08T13:58:34.168Z,68.05
2022-10-08T14:01:02.077Z,67.71
2022-10-08T14:03:29.688Z,67.92
2022-10-08T14:05:58.245Z,68.62
2022-10-08T14:08:26.803Z,69.20
2022-10-08T14:10:58.457Z,69.18
2022-10-08T14:13:26.163Z,69.65
2022-10-08T14:15:54.105Z,68.12
2022-10-08T14:18:21.735Z,66.34
2022-10-08T14:20:50.654Z,67.42
2022-10-08T14:23:17.787Z,67.83
2022-10-08T14:25:44.874Z,68.42
2022-10-08T14:28:11.956Z,68.04
2022-10-08T14:30:38.850Z,68.20
2022-10-08T14:33:11.037Z,68.93
2022-10-08T14:35:38.885Z,68.65
2022-10-08T14:38:05.712Z,68.01
2022-10-08T14:40:32.641Z,66.77
2022-10-08T14:43:00.006Z,66.20
2022-10-08T14:45:26.858Z,65.27
2022-10-08T14:47:53.714Z,64.89
2022-10-08T14:50:21.225Z,65.59
2022-10-08T14:52:48.349Z,66.22
2022-10-08T14:55:15.560Z,65.82
2022-10-08T14:57:42.738Z,66.12
2022-10-08T15:00:10.524Z,65.51
2022-10-08T15:02:37.403Z,66.51
2022-10-08T15:05:04.679Z,67.51
2022-10-08T15:07:31.765Z,68.39
2022-10-08T15:09:59.056Z,69.40
2022-10-08T15:12:26.205Z,69.39
2022-10-08T15:14:53.100Z,68.91
2022-10-08T15:17:20.027Z,68.24
2022-10-08T15:19:47.146Z,68.08
2022-10-08T15:22:14.116Z,67.64
2022-10-08T15:24:41.406Z,67.37
2022-10-08T15:27:08.558Z,68.76
2022-10-08T15:29:35.859Z,68.68
2022-10-08T15:32:03.216Z,69.06
2022-10-08T15:34:30.530Z,68.02
2022-10-08T15:36:57.417Z,67.94
2022-10-08T15:39:24.509Z,66.89
2022-10-08T15:41:52.778Z,65.71
2022-10-08T15:44:20.854Z,65.26
2022-10-08T15:46:48.849Z,64.90
2022-10-08T15:49:17.166Z,65.56
2022-10-08T15:51:44.095Z,66.37
2022-10-08T15:54:10.954Z,67.35
2022-10-08T15:56:38.141Z,67.73
2022-10-08T15:59:05.128Z,68.76
2022-10-08T16:01:32.256Z,69.88
2022-10-08T16:04:00.347Z,70.70
2022-10-08T16:06:28.672Z,71.31
2022-10-08T16:08:58.991Z,70.75
2022-10-08T16:11:26.304Z,69.79
2022-10-08T16:13:54.940Z,68.78
2022-10-08T16:16:22.472Z,67.12
2022-10-08T16:18:52.880Z,65.76
2022-10-08T16:21:21.406Z,64.46
2022-10-08T16:23:48.692Z,63.55
2022-10-08T16:26:20.631Z,63.86
2022-10-08T16:28:48.537Z,63.87
2022-10-08T16:31:15.783Z,63.58
2022-10-08T16:33:42.987Z,62.97
2022-10-08T16:36:10.592Z,62.41
2022-10-08T16:38:39.866Z,61.83
2022-10-08T16:41:14.473Z,62.07
2022-10-08T16:43:41.350Z,61.76
2022-10-08T16:46:18.863Z,61.08
2022-10-08T16:48:51.917Z,60.36
2022-10-08T16:51:19.868Z,59.87
2022-10-08T16:53:50.449Z,60.57
2022-10-08T16:56:18.109Z,59.71
2022-10-08T16:58:45.770Z,60.35
2022-10-08T17:01:12.577Z,60.59
2022-10-08T17:03:39.513Z,60.79
2022-10-08T17:06:09.253Z,61.12
2022-10-08T17:08:36.175Z,61.02
2022-10-08T17:11:04.024Z,61.24
2022-10-08T17:13:31.328Z,61.63
2022-10-08T17:16:02.589Z,61.64
2022-10-08T17:18:29.920Z,62.36
2022-10-08T17:20:57.427Z,61.88
2022-10-08T17:23:25.385Z,62.46
2022-10-08T17:25:56.124Z,62.36
2022-10-08T17:28:27.643Z,62.94
2022-10-08T17:30:55.084Z,63.28
2022-10-08T17:33:21.972Z,63.49
2022-10-08T17:35:49.220Z,63.12
2022-10-08T17:38:16.085Z,64.00
2022-10-08T17:40:42.929Z,63.98
2022-10-08T17:43:10.856Z,63.60
2022-10-08T17:45:37.665Z,64.19
2022-10-08T17:48:04.549Z,63.67
2022-10-08T17:50:34.635Z,64.35
2022-10-08T17:53:01.419Z,63.33
2022-10-08T17:55:29.002Z,62.91
2022-10-08T17:57:56.118Z,62.27
2022-10-08T18:00:23.058Z,61.70
2022-10-08T18:02:50.230Z,62.00
2022-10-08T18:05:17.901Z,61.69
2022-10-08T18:07:44.819Z,63.06
2022-10-08T18:10:11.847Z,62.48
2022-10-08T18:12:38.989Z,63.37
2022-10-08T18:15:06.155Z,63.49
2022-10-08T18:17:33.025Z,63.69
2022-10-08T18:20:00.319Z,64.36
2022-10-08T18:22:27.098Z,64.27
2022-10-08T18:24:54.630Z,64.43
2022-10-08T18:27:21.744Z,64.61
2022-10-08T18:29:48.602Z,64.34
2022-10-08T18:32:15.385Z,64.50
2022-10-08T18:34:43.186Z,64.81
2022-10-08T18:37:09.968Z,65.13
2022-10-08T18:39:36.931Z,65.14
2022-10-08T18:42:04.136Z,65.44
2022-10-08T18:44:31.053Z,66.46
2022-10-08T18:47:03.021Z,66.65
2022-10-08T18:49:33.945Z,65.84
2022-10-08T18:52:01.590Z,66.93
2022-10-08T18:54:28.816Z,67.03
2022-10-08T18:56:56.935Z,67.47
2022-10-08T18:59:23.847Z,67.72
2022-10-08T19:01:50.953Z,68.67
2022-10-08T19:04:21.774Z,68.52
2022-10-08T19:06:50.140Z,69.02
2022-10-08T19:09:17.129Z,69.04
2022-10-08T19:11:46.236Z,68.85
2022-10-08T19:14:14.782Z,70.14
2022-10-08T19:16:42.020Z,70.52
2022-10-08T19:19:12.487Z,69.94
2022-10-08T19:21:39.402Z,70.13
2022-10-08T19:24:07.393Z,69.83
2022-10-08T19:26:34.639Z,70.84
2022-10-08T19:29:01.497Z,71.35
2022-10-08T19:31:30.259Z,71.61
2022-10-08T19:33:58.684Z,71.97
2022-10-08T19:36:26.415Z,72.24
2022-10-08T19:39:00.615Z,73.21
2022-10-08T19:41:28.319Z,73.55
2022-10-08T19:43:55.901Z,73.88
2022-10-08T20:08:32.100Z,81.99
2022-10-08T20:11:02.685Z,81.68
2022-10-08T20:13:29.647Z,81.61
2022-10-08T20:15:56.651Z,81.56
2022-10-08T20:18:23.742Z,81.91
2022-10-08T20:20:59.412Z,82.19
2022-10-08T20:23:26.764Z,81.88
2022-10-08T20:25:53.669Z,82.34
2022-10-08T20:28:21.028Z,83.22
2022-10-08T20:30:48.178Z,83.99
2022-10-08T20:33:15.075Z,83.69
2022-10-08T20:35:41.955Z,83.60
2022-10-08T20:38:09.036Z,83.39
2022-10-08T20:40:35.933Z,83.60
2022-10-08T20:43:02.785Z,83.37
2022-10-08T20:45:29.856Z,83.97
2022-10-08T20:47:56.784Z,83.47
2022-10-08T20:50:23.941Z,83.81
2022-10-08T20:52:51.235Z,84.13
2022-10-08T20:55:18.201Z,83.13
2022-10-08T20:57:45.078Z,82.30
2022-10-08T21:00:12.507Z,82.42
2022-10-08T21:02:39.336Z,82.23
2022-10-08T21:05:06.252Z,83.48
2022-10-08T21:07:33.400Z,83.13
2022-10-08T21:10:00.381Z,83.17
2022-10-08T21:12:27.317Z,83.77
2022-10-08T21:14:54.407Z,84.38
2022-10-08T21:17:21.240Z,84.90
2022-10-08T21:19:48.095Z,84.26
2022-10-08T21:22:15.177Z,84.47
2022-10-08T21:24:42.079Z,85.26
2022-10-08T21:27:09.132Z,85.13
2022-10-08T21:29:37.853Z,85.66
2022-10-08T21:32:04.863Z,85.60
2022-10-08T21:34:32.337Z,85.13
2022-10-08T21:36:59.413Z,84.53
2022-10-08T21:39:26.254Z,83.94
2022-10-08T21:41:55.002Z,84.49
2022-10-08T21:44:22.124Z,83.56
2022-10-08T21:46:49.055Z,82.59
2022-10-08T21:49:17.737Z,82.37
2022-10-08T21:51:45.081Z,83.64
2022-10-08T21:54:12.051Z,83.44
2022-10-08T21:56:39.956Z,84.58
2022-10-08T21:59:08.429Z,84.80
2022-10-08T22:01:36.923Z,84.81
2022-10-08T22:04:05.965Z,86.14
2022-10-08T22:06:37.306Z,85.28
2022-10-08T22:09:05.068Z,85.80
2022-10-08T22:11:32.242Z,84.84
2022-10-08T22:13:59.376Z,85.35
2022-10-08T22:16:26.570Z,86.36
2022-10-08T22:18:53.624Z,87.21
2022-10-08T22:21:21.821Z,88.08
2022-10-08T22:23:49.325Z,87.67
2022-10-08T22:26:21.006Z,87.01
2022-10-08T22:28:48.370Z,86.81
2022-10-08T22:31:16.404Z,86.68
2022-10-08T22:33:43.636Z,86.42
2022-10-08T22:36:12.028Z,85.88
2022-10-08T22:38:39.598Z,86.01
2022-10-08T22:41:10.940Z,86.67
2022-10-08T22:43:38.748Z,85.53
2022-10-08T22:46:16.510Z,85.08
2022-10-08T22:48:44.699Z,85.93
2022-10-08T22:51:12.740Z,85.58
2022-10-08T22:53:39.861Z,85.91
2022-10-08T22:56:08.495Z,85.19
2022-10-08T22:58:35.363Z,85.21
2022-10-08T23:01:06.805Z,85.58
2022-10-08T23:03:34.057Z,85.29
2022-10-08T23:06:05.945Z,84.67
2022-10-08T23:08:33.106Z,84.70
2022-10-08T23:11:00.481Z,85.05
2022-10-08T23:13:28.113Z,85.04
2022-10-08T23:16:03.017Z,85.81
2022-10-08T23:18:34.419Z,86.45
2022-10-08T23:21:02.758Z,86.90
2022-10-08T23:23:29.624Z,86.56
2022-10-08T23:25:57.796Z,87.00
2022-10-08T23:28:24.730Z,87.43
2022-10-08T23:30:51.663Z,88.12
2022-10-08T23:33:19.532Z,88.65
2022-10-08T23:35:53.186Z,89.13
2022-10-08T23:38:20.316Z,90.30
2022-10-08T23:40:47.167Z,89.67
2022-10-08T23:43:14.012Z,89.76
2022-10-08T23:45:41.465Z,89.97
2022-10-08T23:48:08.538Z,89.74
2022-10-08T23:50:38.568Z,90.92
2022-10-08T23:53:05.697Z,90.48
2022-10-08T23:55:32.530Z,89.67
2022-10-08T23:57:59.373Z,88.58
